sensor_id;sensor_type;location;lat;lon;timestamp;P1;durP1;ratioP1;P2;durP2;ratioP2
28545;SDS011;15749;49.606;8.738;2022-10-23T00:00:37;4.40;;;2.70;;
28545;SDS011;15749;49.606;8.738;2022-10-23T00:03:25;6.03;;;2.60;;
28545;SDS011;15749;49.606;8.738;2022-10-23T00:06:13;4.57;;;2.47;;
28545;SDS011;15749;49.606;8.738;2022-10-23T00:09:01;5.17;;;2.90;;
28545;SDS011;15749;49.606;8.738;2022-10-23T00:11:51;4.73;;;2.60;;
28545;SDS011;15749;49.606;8.738;2022-10-23T00:14:40;5.87;;;2.40;;
28545;SDS011;15749;49.606;8.738;2022-10-23T00:17:27;4.10;;;2.10;;
28545;SDS011;15749;49.606;8.738;2022-10-23T00:20:17;3.43;;;2.80;;
28545;SDS011;15749;49.606;8.738;2022-10-23T00:23:06;3.93;;;2.20;;
28545;SDS011;15749;49.606;8.738;2022-10-23T00:25:54;3.60;;;2.40;;
28545;SDS011;15749;49.606;8.738;2022-10-23T00:28:41;6.17;;;2.93;;
28545;SDS011;15749;49.606;8.738;2022-10-23T00:31:31;6.70;;;3.23;;
28545;SDS011;15749;49.606;8.738;2022-10-23T00:34:19;4.67;;;3.30;;
28545;SDS011;15749;49.606;8.738;2022-10-23T00:37:07;4.60;;;3.10;;
28545;SDS011;15749;49.606;8.738;2022-10-23T00:39:54;7.50;;;2.90;;
28545;SDS011;15749;49.606;8.738;2022-10-23T00:42:42;4.20;;;2.87;;
28545;SDS011;15749;49.606;8.738;2022-10-23T00:45:30;3.10;;;2.50;;
28545;SDS011;15749;49.606;8.738;2022-10-23T00:48:20;4.00;;;2.40;;
28545;SDS011;15749;49.606;8.738;2022-10-23T00:51:08;4.53;;;2.93;;
28545;SDS011;15749;49.606;8.738;2022-10-23T00:53:57;3.57;;;3.07;;
28545;SDS011;15749;49.606;8.738;2022-10-23T00:57:07;5.30;;;2.93;;
28545;SDS011;15749;49.606;8.738;2022-10-23T00:59:59;5.43;;;2.50;;
28545;SDS011;15749;49.606;8.738;2022-10-23T01:02:47;4.57;;;3.10;;
28545;SDS011;15749;49.606;8.738;2022-10-23T01:05:40;4.47;;;2.90;;
28545;SDS011;15749;49.606;8.738;2022-10-23T01:08:34;9.17;;;3.40;;
28545;SDS011;15749;49.606;8.738;2022-10-23T01:11:29;4.97;;;3.23;;
28545;SDS011;15749;49.606;8.738;2022-10-23T01:14:26;3.07;;;2.70;;
28545;SDS011;15749;49.606;8.738;2022-10-23T01:17:21;4.27;;;2.30;;
28545;SDS011;15749;49.606;8.738;2022-10-23T01:20:35;2.90;;;2.20;;
28545;SDS011;15749;49.606;8.738;2022-10-23T01:23:46;2.97;;;2.00;;
28545;SDS011;15749;49.606;8.738;2022-10-23T01:26:54;5.63;;;2.40;;
28545;SDS011;15749;49.606;8.738;2022-10-23T01:30:07;3.83;;;2.43;;
28545;SDS011;15749;49.606;8.738;2022-10-23T01:33:01;4.43;;;2.40;;
28545;SDS011;15749;49.606;8.738;2022-10-23T01:36:02;3.73;;;2.23;;
28545;SDS011;15749;49.606;8.738;2022-10-23T01:38:55;3.20;;;2.27;;
28545;SDS011;15749;49.606;8.738;2022-10-23T01:41:47;6.10;;;2.33;;
28545;SDS011;15749;49.606;8.738;2022-10-23T01:44:48;3.97;;;2.60;;
28545;SDS011;15749;49.606;8.738;2022-10-23T01:47:41;3.50;;;2.00;;
28545;SDS011;15749;49.606;8.738;2022-10-23T01:50:33;4.60;;;2.27;;
28545;SDS011;15749;49.606;8.738;2022-10-23T01:53:23;5.13;;;2.20;;
28545;SDS011;15749;49.606;8.738;2022-10-23T01:56:17;4.00;;;2.40;;
28545;SDS011;15749;49.606;8.738;2022-10-23T01:59:09;2.83;;;2.43;;
28545;SDS011;15749;49.606;8.738;2022-10-23T02:02:03;5.07;;;2.27;;
28545;SDS011;15749;49.606;8.738;2022-10-23T02:04:56;5.30;;;2.23;;
28545;SDS011;15749;49.606;8.738;2022-10-23T02:07:49;3.97;;;2.03;;
28545;SDS011;15749;49.606;8.738;2022-10-23T02:10:40;3.03;;;2.10;;
28545;SDS011;15749;49.606;8.738;2022-10-23T02:13:37;2.67;;;1.60;;
28545;SDS011;15749;49.606;8.738;2022-10-23T02:16:36;3.43;;;1.20;;
28545;SDS011;15749;49.606;8.738;2022-10-23T02:19:29;2.83;;;1.47;;
28545;SDS011;15749;49.606;8.738;2022-10-23T02:22:28;4.30;;;1.73;;
28545;SDS011;15749;49.606;8.738;2022-10-23T02:25:27;2.17;;;1.80;;
28545;SDS011;15749;49.606;8.738;2022-10-23T02:28:22;2.53;;;2.00;;
28545;SDS011;15749;49.606;8.738;2022-10-23T02:31:19;1.73;;;1.60;;
28545;SDS011;15749;49.606;8.738;2022-10-23T02:34:10;4.70;;;2.20;;
28545;SDS011;15749;49.606;8.738;2022-10-23T02:37:00;4.63;;;1.97;;
28545;SDS011;15749;49.606;8.738;2022-10-23T02:39:48;5.30;;;1.80;;
28545;SDS011;15749;49.606;8.738;2022-10-23T02:42:38;2.50;;;1.90;;
28545;SDS011;15749;49.606;8.738;2022-10-23T02:45:34;3.83;;;1.80;;
28545;SDS011;15749;49.606;8.738;2022-10-23T02:48:28;1.77;;;1.40;;
28545;SDS011;15749;49.606;8.738;2022-10-23T02:51:29;2.87;;;1.53;;
28545;SDS011;15749;49.606;8.738;2022-10-23T02:54:30;4.70;;;1.60;;
28545;SDS011;15749;49.606;8.738;2022-10-23T02:57:43;3.63;;;1.90;;
28545;SDS011;15749;49.606;8.738;2022-10-23T03:00:38;5.83;;;1.73;;
28545;SDS011;15749;49.606;8.738;2022-10-23T03:03:34;4.17;;;1.60;;
28545;SDS011;15749;49.606;8.738;2022-10-23T03:06:29;6.43;;;1.90;;
28545;SDS011;15749;49.606;8.738;2022-10-23T03:09:18;3.17;;;1.60;;
28545;SDS011;15749;49.606;8.738;2022-10-23T03:12:08;3.43;;;1.70;;
28545;SDS011;15749;49.606;8.738;2022-10-23T03:14:56;2.40;;;1.50;;
28545;SDS011;15749;49.606;8.738;2022-10-23T03:17:44;2.73;;;1.37;;
28545;SDS011;15749;49.606;8.738;2022-10-23T03:20:32;2.03;;;1.50;;
28545;SDS011;15749;49.606;8.738;2022-10-23T03:23:24;4.67;;;1.50;;
28545;SDS011;15749;49.606;8.738;2022-10-23T03:26:13;1.23;;;1.13;;
28545;SDS011;15749;49.606;8.738;2022-10-23T03:29:11;2.80;;;1.40;;
28545;SDS011;15749;49.606;8.738;2022-10-23T03:32:03;1.73;;;1.43;;
28545;SDS011;15749;49.606;8.738;2022-10-23T03:34:51;2.07;;;1.50;;
28545;SDS011;15749;49.606;8.738;2022-10-23T03:37:40;4.10;;;1.60;;
28545;SDS011;15749;49.606;8.738;2022-10-23T03:40:30;4.53;;;2.00;;
28545;SDS011;15749;49.606;8.738;2022-10-23T03:43:18;2.30;;;1.80;;
28545;SDS011;15749;49.606;8.738;2022-10-23T03:46:07;5.13;;;1.93;;
28545;SDS011;15749;49.606;8.738;2022-10-23T03:48:57;4.80;;;1.80;;
28545;SDS011;15749;49.606;8.738;2022-10-23T03:51:45;3.23;;;1.87;;
28545;SDS011;15749;49.606;8.738;2022-10-23T03:55:00;4.33;;;1.73;;
28545;SDS011;15749;49.606;8.738;2022-10-23T03:57:51;2.67;;;1.63;;
28545;SDS011;15749;49.606;8.738;2022-10-23T04:00:43;4.27;;;1.73;;
28545;SDS011;15749;49.606;8.738;2022-10-23T04:03:32;5.47;;;1.30;;
28545;SDS011;15749;49.606;8.738;2022-10-23T04:06:20;2.90;;;1.10;;
28545;SDS011;15749;49.606;8.738;2022-10-23T04:09:12;2.03;;;1.20;;
28545;SDS011;15749;49.606;8.738;2022-10-23T04:12:00;1.57;;;1.20;;
28545;SDS011;15749;49.606;8.738;2022-10-23T04:14:50;2.27;;;1.20;;
28545;SDS011;15749;49.606;8.738;2022-10-23T04:17:58;2.10;;;1.10;;
28545;SDS011;15749;49.606;8.738;2022-10-23T04:20:47;1.97;;;1.30;;
28545;SDS011;15749;49.606;8.738;2022-10-23T04:28:01;2.30;;;1.37;;
28545;SDS011;15749;49.606;8.738;2022-10-23T04:30:55;1.00;;;0.80;;
28545;SDS011;15749;49.606;8.738;2022-10-23T04:37:51;5.73;;;1.60;;
28545;SDS011;15749;49.606;8.738;2022-10-23T04:40:44;2.30;;;1.33;;
28545;SDS011;15749;49.606;8.738;2022-10-23T04:43:52;2.03;;;1.33;;
28545;SDS011;15749;49.606;8.738;2022-10-23T04:46:40;2.13;;;1.50;;
28545;SDS011;15749;49.606;8.738;2022-10-23T04:49:28;3.50;;;1.70;;
28545;SDS011;15749;49.606;8.738;2022-10-23T04:52:35;1.90;;;1.53;;
28545;SDS011;15749;49.606;8.738;2022-10-23T04:55:48;1.57;;;1.40;;
28545;SDS011;15749;49.606;8.738;2022-10-23T04:58:42;3.23;;;1.40;;
28545;SDS011;15749;49.606;8.738;2022-10-23T05:01:30;2.03;;;1.27;;
28545;SDS011;15749;49.606;8.738;2022-10-23T05:04:20;1.80;;;1.60;;
28545;SDS011;15749;49.606;8.738;2022-10-23T05:07:31;3.50;;;1.30;;
28545;SDS011;15749;49.606;8.738;2022-10-23T05:10:38;2.03;;;1.30;;
28545;SDS011;15749;49.606;8.738;2022-10-23T05:13:30;4.00;;;1.37;;
28545;SDS011;15749;49.606;8.738;2022-10-23T05:16:23;1.93;;;1.60;;
28545;SDS011;15749;49.606;8.738;2022-10-23T05:19:23;2.93;;;1.43;;
28545;SDS011;15749;49.606;8.738;2022-10-23T05:22:16;4.63;;;1.63;;
28545;SDS011;15749;49.606;8.738;2022-10-23T05:25:10;2.33;;;1.40;;
28545;SDS011;15749;49.606;8.738;2022-10-23T05:28:05;2.13;;;1.40;;
28545;SDS011;15749;49.606;8.738;2022-10-23T05:30:54;2.33;;;1.43;;
28545;SDS011;15749;49.606;8.738;2022-10-23T05:33:47;1.63;;;1.43;;
28545;SDS011;15749;49.606;8.738;2022-10-23T05:36:37;2.70;;;1.47;;
28545;SDS011;15749;49.606;8.738;2022-10-23T05:39:25;1.83;;;1.33;;
28545;SDS011;15749;49.606;8.738;2022-10-23T05:42:12;1.50;;;1.07;;
28545;SDS011;15749;49.606;8.738;2022-10-23T05:45:00;2.10;;;1.47;;
28545;SDS011;15749;49.606;8.738;2022-10-23T05:48:21;4.10;;;1.30;;
28545;SDS011;15749;49.606;8.738;2022-10-23T05:51:39;1.97;;;1.20;;
28545;SDS011;15749;49.606;8.738;2022-10-23T05:55:02;1.40;;;1.10;;
28545;SDS011;15749;49.606;8.738;2022-10-23T05:58:06;2.27;;;1.33;;
28545;SDS011;15749;49.606;8.738;2022-10-23T06:01:13;2.23;;;1.40;;
28545;SDS011;15749;49.606;8.738;2022-10-23T06:04:06;4.43;;;1.40;;
28545;SDS011;15749;49.606;8.738;2022-10-23T06:07:00;1.67;;;1.30;;
28545;SDS011;15749;49.606;8.738;2022-10-23T06:09:32;3.47;;;1.40;;
28545;SDS011;15749;49.606;8.738;2022-10-23T06:12:02;2.80;;;1.30;;
28545;SDS011;15749;49.606;8.738;2022-10-23T06:14:32;1.53;;;1.20;;
28545;SDS011;15749;49.606;8.738;2022-10-23T06:17:01;1.20;;;1.10;;
28545;SDS011;15749;49.606;8.738;2022-10-23T06:19:34;2.13;;;1.13;;
28545;SDS011;15749;49.606;8.738;2022-10-23T06:22:03;4.27;;;1.40;;
28545;SDS011;15749;49.606;8.738;2022-10-23T06:24:45;3.87;;;1.60;;
28545;SDS011;15749;49.606;8.738;2022-10-23T06:27:22;3.43;;;1.50;;
28545;SDS011;15749;49.606;8.738;2022-10-23T06:29:53;5.97;;;2.20;;
28545;SDS011;15749;49.606;8.738;2022-10-23T06:32:22;3.10;;;1.90;;
28545;SDS011;15749;49.606;8.738;2022-10-23T06:35:17;2.13;;;1.80;;
28545;SDS011;15749;49.606;8.738;2022-10-23T06:38:12;2.27;;;1.80;;
28545;SDS011;15749;49.606;8.738;2022-10-23T06:41:47;4.03;;;1.83;;
28545;SDS011;15749;49.606;8.738;2022-10-23T06:44:36;4.47;;;2.07;;
28545;SDS011;15749;49.606;8.738;2022-10-23T06:47:28;3.07;;;2.00;;
28545;SDS011;15749;49.606;8.738;2022-10-23T06:50:27;3.00;;;1.70;;
28545;SDS011;15749;49.606;8.738;2022-10-23T06:53:04;4.70;;;2.47;;
28545;SDS011;15749;49.606;8.738;2022-10-23T06:55:37;3.07;;;1.90;;
28545;SDS011;15749;49.606;8.738;2022-10-23T06:58:08;3.83;;;1.53;;
28545;SDS011;15749;49.606;8.738;2022-10-23T07:00:53;4.60;;;1.90;;
28545;SDS011;15749;49.606;8.738;2022-10-23T07:03:23;3.20;;;2.17;;
28545;SDS011;15749;49.606;8.738;2022-10-23T07:05:54;2.53;;;2.33;;
28545;SDS011;15749;49.606;8.738;2022-10-23T07:08:23;2.47;;;2.10;;
28545;SDS011;15749;49.606;8.738;2022-10-23T07:10:55;4.17;;;2.93;;
28545;SDS011;15749;49.606;8.738;2022-10-23T07:13:24;4.13;;;3.30;;
28545;SDS011;15749;49.606;8.738;2022-10-23T07:15:57;3.53;;;2.60;;
28545;SDS011;15749;49.606;8.738;2022-10-23T07:18:27;3.03;;;2.50;;
28545;SDS011;15749;49.606;8.738;2022-10-23T07:21:28;2.43;;;2.20;;
28545;SDS011;15749;49.606;8.738;2022-10-23T07:24:23;4.03;;;2.80;;
28545;SDS011;15749;49.606;8.738;2022-10-23T07:26:54;5.03;;;3.50;;
28545;SDS011;15749;49.606;8.738;2022-10-23T07:29:26;5.93;;;2.97;;
28545;SDS011;15749;49.606;8.738;2022-10-23T07:31:56;5.47;;;3.77;;
28545;SDS011;15749;49.606;8.738;2022-10-23T07:34:49;4.60;;;3.80;;
28545;SDS011;15749;49.606;8.738;2022-10-23T07:37:25;7.07;;;4.00;;
28545;SDS011;15749;49.606;8.738;2022-10-23T07:39:59;5.20;;;3.67;;
28545;SDS011;15749;49.606;8.738;2022-10-23T07:42:31;5.37;;;3.23;;
28545;SDS011;15749;49.606;8.738;2022-10-23T07:45:01;9.00;;;4.40;;
28545;SDS011;15749;49.606;8.738;2022-10-23T07:47:32;6.67;;;5.50;;
28545;SDS011;15749;49.606;8.738;2022-10-23T07:50:03;9.77;;;8.30;;
28545;SDS011;15749;49.606;8.738;2022-10-23T07:52:34;9.33;;;6.20;;
28545;SDS011;15749;49.606;8.738;2022-10-23T07:55:11;5.80;;;5.20;;
28545;SDS011;15749;49.606;8.738;2022-10-23T07:58:04;5.97;;;4.07;;
28545;SDS011;15749;49.606;8.738;2022-10-23T08:00:43;8.17;;;4.13;;
28545;SDS011;15749;49.606;8.738;2022-10-23T08:03:26;3.40;;;3.10;;
28545;SDS011;15749;49.606;8.738;2022-10-23T08:05:57;8.20;;;5.50;;
28545;SDS011;15749;49.606;8.738;2022-10-23T08:08:29;7.03;;;5.97;;
28545;SDS011;15749;49.606;8.738;2022-10-23T08:11:02;6.07;;;5.47;;
28545;SDS011;15749;49.606;8.738;2022-10-23T08:13:42;8.57;;;4.97;;
28545;SDS011;15749;49.606;8.738;2022-10-23T08:16:11;5.20;;;4.03;;
28545;SDS011;15749;49.606;8.738;2022-10-23T08:18:59;4.30;;;3.90;;
28545;SDS011;15749;49.606;8.738;2022-10-23T08:21:29;3.60;;;3.30;;
28545;SDS011;15749;49.606;8.738;2022-10-23T08:24:01;3.70;;;3.20;;
28545;SDS011;15749;49.606;8.738;2022-10-23T08:26:31;3.73;;;2.70;;
28545;SDS011;15749;49.606;8.738;2022-10-23T08:29:00;4.27;;;2.83;;
28545;SDS011;15749;49.606;8.738;2022-10-23T08:35:35;5.40;;;4.60;;
28545;SDS011;15749;49.606;8.738;2022-10-23T08:43:33;6.00;;;4.57;;
28545;SDS011;15749;49.606;8.738;2022-10-23T08:46:23;6.53;;;4.33;;
28545;SDS011;15749;49.606;8.738;2022-10-23T08:49:22;4.70;;;3.50;;
28545;SDS011;15749;49.606;8.738;2022-10-23T08:52:14;3.07;;;2.77;;
28545;SDS011;15749;49.606;8.738;2022-10-23T08:55:00;2.60;;;1.90;;
28545;SDS011;15749;49.606;8.738;2022-10-23T08:57:42;1.57;;;1.00;;
28545;SDS011;15749;49.606;8.738;2022-10-23T09:00:19;1.00;;;0.90;;
28545;SDS011;15749;49.606;8.738;2022-10-23T09:02:53;1.83;;;1.10;;
28545;SDS011;15749;49.606;8.738;2022-10-23T09:05:26;1.00;;;0.77;;
28545;SDS011;15749;49.606;8.738;2022-10-23T09:08:03;1.77;;;0.90;;
28545;SDS011;15749;49.606;8.738;2022-10-23T09:11:54;0.97;;;0.60;;
28545;SDS011;15749;49.606;8.738;2022-10-23T09:16:01;4.10;;;0.77;;
28545;SDS011;15749;49.606;8.738;2022-10-23T09:19:15;2.57;;;0.63;;
28545;SDS011;15749;49.606;8.738;2022-10-23T09:22:52;1.30;;;0.70;;
28545;SDS011;15749;49.606;8.738;2022-10-23T09:25:33;1.20;;;0.80;;
28545;SDS011;15749;49.606;8.738;2022-10-23T09:28:10;2.00;;;0.60;;
28545;SDS011;15749;49.606;8.738;2022-10-23T09:30:47;0.83;;;0.40;;
28545;SDS011;15749;49.606;8.738;2022-10-23T09:33:20;0.70;;;0.60;;
28545;SDS011;15749;49.606;8.738;2022-10-23T09:35:52;0.40;;;0.30;;
28545;SDS011;15749;49.606;8.738;2022-10-23T09:38:25;1.03;;;0.50;;
28545;SDS011;15749;49.606;8.738;2022-10-23T09:40:58;0.70;;;0.40;;
28545;SDS011;15749;49.606;8.738;2022-10-23T09:43:32;0.40;;;0.40;;
28545;SDS011;15749;49.606;8.738;2022-10-23T09:46:03;1.30;;;0.50;;
28545;SDS011;15749;49.606;8.738;2022-10-23T09:48:37;1.65;;;0.50;;
28545;SDS011;15749;49.606;8.738;2022-10-23T09:51:14;3.35;;;0.70;;
28545;SDS011;15749;49.606;8.738;2022-10-23T09:53:47;1.75;;;0.45;;
28545;SDS011;15749;49.606;8.738;2022-10-23T09:56:23;2.67;;;0.50;;
28545;SDS011;15749;49.606;8.738;2022-10-23T09:58:57;0.40;;;0.40;;
28545;SDS011;15749;49.606;8.738;2022-10-23T10:01:29;0.95;;;0.55;;
28545;SDS011;15749;49.606;8.738;2022-10-23T10:04:32;1.42;;;0.73;;
28545;SDS011;15749;49.606;8.738;2022-10-23T10:07:04;2.15;;;0.70;;
28545;SDS011;15749;49.606;8.738;2022-10-23T10:09:45;0.77;;;0.60;;
28545;SDS011;15749;49.606;8.738;2022-10-23T10:12:18;0.57;;;0.50;;
28545;SDS011;15749;49.606;8.738;2022-10-23T10:15:12;0.50;;;0.47;;
28545;SDS011;15749;49.606;8.738;2022-10-23T10:17:51;2.85;;;0.77;;
28545;SDS011;15749;49.606;8.738;2022-10-23T10:20:36;1.10;;;0.52;;
28545;SDS011;15749;49.606;8.738;2022-10-23T10:23:17;1.45;;;0.60;;
28545;SDS011;15749;49.606;8.738;2022-10-23T10:25:59;0.80;;;0.57;;
28545;SDS011;15749;49.606;8.738;2022-10-23T10:28:43;1.35;;;0.47;;
28545;SDS011;15749;49.606;8.738;2022-10-23T10:31:31;1.23;;;0.50;;
28545;SDS011;15749;49.606;8.738;2022-10-23T10:34:11;1.10;;;0.50;;
28545;SDS011;15749;49.606;8.738;2022-10-23T10:36:46;0.77;;;0.52;;
28545;SDS011;15749;49.606;8.738;2022-10-23T10:39:23;2.15;;;0.57;;
28545;SDS011;15749;49.606;8.738;2022-10-23T10:42:15;1.10;;;0.65;;
28545;SDS011;15749;49.606;8.738;2022-10-23T10:45:02;1.10;;;0.50;;
28545;SDS011;15749;49.606;8.738;2022-10-23T10:47:48;1.13;;;0.65;;
28545;SDS011;15749;49.606;8.738;2022-10-23T10:50:51;1.60;;;0.70;;
28545;SDS011;15749;49.606;8.738;2022-10-23T10:53:42;0.90;;;0.60;;
28545;SDS011;15749;49.606;8.738;2022-10-23T10:56:27;0.47;;;0.47;;
28545;SDS011;15749;49.606;8.738;2022-10-23T10:58:59;2.85;;;0.60;;
28545;SDS011;15749;49.606;8.738;2022-10-23T11:01:34;1.33;;;0.73;;
28545;SDS011;15749;49.606;8.738;2022-10-23T11:04:12;1.77;;;0.80;;
28545;SDS011;15749;49.606;8.738;2022-10-23T11:06:51;1.25;;;0.80;;
28545;SDS011;15749;49.606;8.738;2022-10-23T11:09:23;1.75;;;0.63;;
28545;SDS011;15749;49.606;8.738;2022-10-23T11:11:56;0.60;;;0.60;;
28545;SDS011;15749;49.606;8.738;2022-10-23T11:14:26;1.27;;;0.70;;
28545;SDS011;15749;49.606;8.738;2022-10-23T11:17:00;0.80;;;0.60;;
28545;SDS011;15749;49.606;8.738;2022-10-23T11:19:39;0.50;;;0.40;;
28545;SDS011;15749;49.606;8.738;2022-10-23T11:22:15;1.20;;;0.60;;
28545;SDS011;15749;49.606;8.738;2022-10-23T11:25:06;0.88;;;0.85;;
28545;SDS011;15749;49.606;8.738;2022-10-23T11:28:22;1.33;;;0.50;;
28545;SDS011;15749;49.606;8.738;2022-10-23T11:31:06;1.65;;;0.60;;
28545;SDS011;15749;49.606;8.738;2022-10-23T11:33:52;0.70;;;0.60;;
28545;SDS011;15749;49.606;8.738;2022-10-23T11:36:45;0.40;;;0.40;;
28545;SDS011;15749;49.606;8.738;2022-10-23T11:39:19;2.78;;;0.60;;
28545;SDS011;15749;49.606;8.738;2022-10-23T11:41:54;2.17;;;0.60;;
28545;SDS011;15749;49.606;8.738;2022-10-23T11:47:30;2.20;;;0.60;;
28545;SDS011;15749;49.606;8.738;2022-10-23T11:50:14;2.80;;;0.60;;
28545;SDS011;15749;49.606;8.738;2022-10-23T11:53:04;1.55;;;0.55;;
28545;SDS011;15749;49.606;8.738;2022-10-23T11:56:00;0.90;;;0.60;;
28545;SDS011;15749;49.606;8.738;2022-10-23T11:58:42;1.00;;;0.50;;
28545;SDS011;15749;49.606;8.738;2022-10-23T12:01:17;0.93;;;0.40;;
28545;SDS011;15749;49.606;8.738;2022-10-23T12:03:55;2.47;;;0.60;;
28545;SDS011;15749;49.606;8.738;2022-10-23T12:06:30;2.67;;;0.80;;
28545;SDS011;15749;49.606;8.738;2022-10-23T12:12:16;0.55;;;0.40;;
28545;SDS011;15749;49.606;8.738;2022-10-23T12:15:06;5.57;;;0.70;;
28545;SDS011;15749;49.606;8.738;2022-10-23T12:17:47;1.40;;;0.55;;
28545;SDS011;15749;49.606;8.738;2022-10-23T12:20:27;0.55;;;0.52;;
28545;SDS011;15749;49.606;8.738;2022-10-23T12:23:15;0.65;;;0.45;;
28545;SDS011;15749;49.606;8.738;2022-10-23T12:26:18;0.50;;;0.40;;
28545;SDS011;15749;49.606;8.738;2022-10-23T12:29:01;0.82;;;0.40;;
28545;SDS011;15749;49.606;8.738;2022-10-23T12:31:44;1.30;;;0.55;;
28545;SDS011;15749;49.606;8.738;2022-10-23T12:34:27;2.38;;;0.90;;
28545;SDS011;15749;49.606;8.738;2022-10-23T12:37:13;0.98;;;0.68;;
28545;SDS011;15749;49.606;8.738;2022-10-23T12:40:17;1.10;;;0.80;;
28545;SDS011;15749;49.606;8.738;2022-10-23T12:42:53;1.83;;;0.50;;
28545;SDS011;15749;49.606;8.738;2022-10-23T12:45:23;0.98;;;0.70;;
28545;SDS011;15749;49.606;8.738;2022-10-23T12:47:55;1.85;;;0.82;;
28545;SDS011;15749;49.606;8.738;2022-10-23T12:50:25;1.58;;;0.70;;
28545;SDS011;15749;49.606;8.738;2022-10-23T12:52:57;1.75;;;0.60;;
28545;SDS011;15749;49.606;8.738;2022-10-23T12:55:31;0.57;;;0.50;;
28545;SDS011;15749;49.606;8.738;2022-10-23T12:58:19;5.47;;;0.70;;
28545;SDS011;15749;49.606;8.738;2022-10-23T13:00:54;1.75;;;0.50;;
28545;SDS011;15749;49.606;8.738;2022-10-23T13:03:26;1.08;;;0.65;;
28545;SDS011;15749;49.606;8.738;2022-10-23T13:05:58;0.98;;;0.50;;
28545;SDS011;15749;49.606;8.738;2022-10-23T13:08:31;0.95;;;0.50;;
28545;SDS011;15749;49.606;8.738;2022-10-23T13:11:27;1.15;;;0.50;;
28545;SDS011;15749;49.606;8.738;2022-10-23T13:14:03;0.50;;;0.40;;
28545;SDS011;15749;49.606;8.738;2022-10-23T13:16:39;1.05;;;0.50;;
28545;SDS011;15749;49.606;8.738;2022-10-23T13:19:21;0.50;;;0.47;;
28545;SDS011;15749;49.606;8.738;2022-10-23T13:21:52;1.23;;;0.50;;
28545;SDS011;15749;49.606;8.738;2022-10-23T13:24:22;0.50;;;0.40;;
28545;SDS011;15749;49.606;8.738;2022-10-23T13:26:55;1.20;;;0.57;;
28545;SDS011;15749;49.606;8.738;2022-10-23T13:29:27;0.57;;;0.40;;
28545;SDS011;15749;49.606;8.738;2022-10-23T13:32:08;1.77;;;0.60;;
28545;SDS011;15749;49.606;8.738;2022-10-23T13:34:37;0.47;;;0.47;;
28545;SDS011;15749;49.606;8.738;2022-10-23T13:37:20;2.33;;;0.50;;
28545;SDS011;15749;49.606;8.738;2022-10-23T13:39:58;1.10;;;0.50;;
28545;SDS011;15749;49.606;8.738;2022-10-23T13:42:28;2.10;;;0.50;;
28545;SDS011;15749;49.606;8.738;2022-10-23T13:44:59;1.15;;;0.55;;
28545;SDS011;15749;49.606;8.738;2022-10-23T13:47:28;2.33;;;0.50;;
28545;SDS011;15749;49.606;8.738;2022-10-23T13:49:57;1.42;;;0.60;;
28545;SDS011;15749;49.606;8.738;2022-10-23T13:52:26;1.05;;;0.63;;
28545;SDS011;15749;49.606;8.738;2022-10-23T13:54:55;0.60;;;0.43;;
28545;SDS011;15749;49.606;8.738;2022-10-23T13:57:24;0.38;;;0.38;;
28545;SDS011;15749;49.606;8.738;2022-10-23T13:59:53;0.65;;;0.55;;
28545;SDS011;15749;49.606;8.738;2022-10-23T14:02:24;2.73;;;0.50;;
28545;SDS011;15749;49.606;8.738;2022-10-23T14:04:53;0.73;;;0.50;;
28545;SDS011;15749;49.606;8.738;2022-10-23T14:07:22;0.50;;;0.40;;
28545;SDS011;15749;49.606;8.738;2022-10-23T14:09:51;0.40;;;0.37;;
28545;SDS011;15749;49.606;8.738;2022-10-23T14:12:20;3.23;;;0.60;;
28545;SDS011;15749;49.606;8.738;2022-10-23T14:14:49;1.38;;;0.50;;
28545;SDS011;15749;49.606;8.738;2022-10-23T14:17:19;1.02;;;0.40;;
28545;SDS011;15749;49.606;8.738;2022-10-23T14:19:49;0.75;;;0.40;;
28545;SDS011;15749;49.606;8.738;2022-10-23T14:22:18;0.60;;;0.50;;
28545;SDS011;15749;49.606;8.738;2022-10-23T14:24:48;1.42;;;0.50;;
28545;SDS011;15749;49.606;8.738;2022-10-23T14:27:17;4.97;;;0.50;;
28545;SDS011;15749;49.606;8.738;2022-10-23T14:29:46;0.73;;;0.40;;
28545;SDS011;15749;49.606;8.738;2022-10-23T14:32:15;3.88;;;0.82;;
28545;SDS011;15749;49.606;8.738;2022-10-23T14:34:48;0.82;;;0.40;;
28545;SDS011;15749;49.606;8.738;2022-10-23T14:37:20;1.00;;;0.40;;
28545;SDS011;15749;49.606;8.738;2022-10-23T14:39:49;3.63;;;0.53;;
28545;SDS011;15749;49.606;8.738;2022-10-23T14:42:18;2.77;;;1.00;;
28545;SDS011;15749;49.606;8.738;2022-10-23T14:44:47;1.23;;;0.50;;
28545;SDS011;15749;49.606;8.738;2022-10-23T14:47:17;1.30;;;0.65;;
28545;SDS011;15749;49.606;8.738;2022-10-23T14:52:30;1.20;;;0.50;;
28545;SDS011;15749;49.606;8.738;2022-10-23T14:55:00;3.17;;;0.52;;
28545;SDS011;15749;49.606;8.738;2022-10-23T14:57:29;2.60;;;0.60;;
28545;SDS011;15749;49.606;8.738;2022-10-23T14:59:59;1.70;;;0.55;;
28545;SDS011;15749;49.606;8.738;2022-10-23T15:02:29;2.15;;;0.70;;
28545;SDS011;15749;49.606;8.738;2022-10-23T15:04:59;1.30;;;0.50;;
28545;SDS011;15749;49.606;8.738;2022-10-23T15:07:30;2.47;;;0.70;;
28545;SDS011;15749;49.606;8.738;2022-10-23T15:10:01;3.75;;;0.88;;
28545;SDS011;15749;49.606;8.738;2022-10-23T15:12:31;1.70;;;0.50;;
28545;SDS011;15749;49.606;8.738;2022-10-23T15:15:03;1.33;;;0.50;;
28545;SDS011;15749;49.606;8.738;2022-10-23T15:17:35;1.15;;;0.60;;
28545;SDS011;15749;49.606;8.738;2022-10-23T15:20:05;4.50;;;1.27;;
28545;SDS011;15749;49.606;8.738;2022-10-23T15:22:36;3.47;;;0.90;;
28545;SDS011;15749;49.606;8.738;2022-10-23T15:25:06;0.50;;;0.50;;
28545;SDS011;15749;49.606;8.738;2022-10-23T15:27:41;3.67;;;0.63;;
28545;SDS011;15749;49.606;8.738;2022-10-23T15:30:11;1.90;;;0.60;;
28545;SDS011;15749;49.606;8.738;2022-10-23T15:32:41;1.25;;;0.70;;
28545;SDS011;15749;49.606;8.738;2022-10-23T15:35:10;1.23;;;0.80;;
28545;SDS011;15749;49.606;8.738;2022-10-23T15:37:41;0.70;;;0.60;;
28545;SDS011;15749;49.606;8.738;2022-10-23T15:40:11;1.10;;;0.70;;
28545;SDS011;15749;49.606;8.738;2022-10-23T15:42:41;2.47;;;0.50;;
28545;SDS011;15749;49.606;8.738;2022-10-23T15:45:11;0.60;;;0.60;;
28545;SDS011;15749;49.606;8.738;2022-10-23T15:47:42;1.70;;;0.67;;
28545;SDS011;15749;49.606;8.738;2022-10-23T15:50:12;3.23;;;0.70;;
28545;SDS011;15749;49.606;8.738;2022-10-23T15:52:43;2.20;;;0.77;;
28545;SDS011;15749;49.606;8.738;2022-10-23T15:55:13;1.03;;;0.70;;
28545;SDS011;15749;49.606;8.738;2022-10-23T15:57:43;1.57;;;0.60;;
28545;SDS011;15749;49.606;8.738;2022-10-23T16:00:14;0.90;;;0.63;;
28545;SDS011;15749;49.606;8.738;2022-10-23T16:02:47;3.53;;;0.77;;
28545;SDS011;15749;49.606;8.738;2022-10-23T16:05:16;1.63;;;0.63;;
28545;SDS011;15749;49.606;8.738;2022-10-23T16:07:47;1.13;;;0.67;;
28545;SDS011;15749;49.606;8.738;2022-10-23T16:10:17;0.95;;;0.57;;
28545;SDS011;15749;49.606;8.738;2022-10-23T16:12:47;2.53;;;0.77;;
28545;SDS011;15749;49.606;8.738;2022-10-23T16:15:17;1.20;;;0.70;;
28545;SDS011;15749;49.606;8.738;2022-10-23T16:17:47;2.30;;;0.80;;
28545;SDS011;15749;49.606;8.738;2022-10-23T16:20:17;2.23;;;0.90;;
28545;SDS011;15749;49.606;8.738;2022-10-23T16:22:48;3.57;;;0.80;;
28545;SDS011;15749;49.606;8.738;2022-10-23T16:25:19;1.70;;;0.77;;
28545;SDS011;15749;49.606;8.738;2022-10-23T16:27:49;0.70;;;0.70;;
28545;SDS011;15749;49.606;8.738;2022-10-23T16:30:19;1.20;;;0.60;;
28545;SDS011;15749;49.606;8.738;2022-10-23T16:32:50;1.37;;;0.50;;
28545;SDS011;15749;49.606;8.738;2022-10-23T16:35:21;1.53;;;0.70;;
28545;SDS011;15749;49.606;8.738;2022-10-23T16:38:05;5.03;;;1.07;;
28545;SDS011;15749;49.606;8.738;2022-10-23T16:40:35;2.50;;;0.90;;
28545;SDS011;15749;49.606;8.738;2022-10-23T16:43:37;2.17;;;1.03;;
28545;SDS011;15749;49.606;8.738;2022-10-23T16:46:28;1.40;;;0.90;;
28545;SDS011;15749;49.606;8.738;2022-10-23T16:48:58;5.53;;;0.90;;
28545;SDS011;15749;49.606;8.738;2022-10-23T16:51:29;2.63;;;0.90;;